createdAt,value
2017-12-01T00:00:54.963Z,4.64
2017-12-01T00:02:03.496Z,4.61
2017-12-01T00:03:12.036Z,4.64
2017-12-01T00:04:20.839Z,4.64
2017-12-01T00:05:29.638Z,4.69
2017-12-01T00:06:38.448Z,4.6
2017-12-01T00:07:47.525Z,4.64
2017-12-01T00:08:56.062Z,4.71
2017-12-01T00:10:05.191Z,4.64
2017-12-01T00:11:13.723Z,4.65
2017-12-01T00:12:22.798Z,4.72
2017-12-01T00:13:31.878Z,4.69
2017-12-01T00:14:40.683Z,4.68
2017-12-01T00:15:49.491Z,4.74
2017-12-01T00:16:58.559Z,4.72
2017-12-01T00:18:07.096Z,4.79
2017-12-01T00:19:16.171Z,4.83
2017-12-01T00:20:24.972Z,4.75
2017-12-01T00:21:33.510Z,4.74
2017-12-01T00:22:42.585Z,4.78
2017-12-01T00:23:51.373Z,4.87
2017-12-01T00:25:00.174Z,4.75
2017-12-01T00:26:08.982Z,4.85
2017-12-01T00:27:18.051Z,4.74
2017-12-01T00:28:26.854Z,4.76
2017-12-01T00:29:35.667Z,4.83
2017-12-01T00:30:44.468Z,4.79
2017-12-01T00:31:53.271Z,4.84
2017-12-01T00:33:01.809Z,4.84
2017-12-01T00:34:10.881Z,4.84
2017-12-01T00:35:19.686Z,4.91
2017-12-01T00:36:28.769Z,4.83
2017-12-01T00:37:38.556Z,4.97
2017-12-01T00:38:47.358Z,4.91
2017-12-01T00:39:55.895Z,4.91
2017-12-01T00:41:04.968Z,4.95
2017-12-01T00:42:13.506Z,4.9
2017-12-01T00:43:22.309Z,4.85
2017-12-01T00:44:31.378Z,4.91
2017-12-01T00:45:40.178Z,4.83
2017-12-01T00:46:48.982Z,4.87
2017-12-01T00:47:57.846Z,4.79
2017-12-01T00:49:06.591Z,4.83
2017-12-01T00:50:15.418Z,4.83
2017-12-01T00:51:24.200Z,4.84
2017-12-01T00:52:32.738Z,4.79
2017-12-01T00:53:41.542Z,4.79
2017-12-01T00:54:50.879Z,4.84
2017-12-01T00:55:59.682Z,4.84
2017-12-01T00:57:08.485Z,4.87
2017-12-01T00:58:17.557Z,4.74
2017-12-01T00:59:26.091Z,4.74
2017-12-01T01:00:35.440Z,4.76
2017-12-01T01:01:44.241Z,4.74
2017-12-01T01:02:53.046Z,4.66
2017-12-01T01:04:01.583Z,4.78
2017-12-01T01:05:10.120Z,4.65
2017-12-01T01:06:19.460Z,4.71
2017-12-01T01:07:28.257Z,4.68
2017-12-01T01:08:37.331Z,4.72
2017-12-01T01:09:46.126Z,4.65
2017-12-01T01:10:54.662Z,4.66
2017-12-01T01:12:03.464Z,4.65
2017-12-01T01:13:12.000Z,4.6
2017-12-01T01:14:21.067Z,4.65
2017-12-01T01:15:29.600Z,4.53
2017-12-01T01:16:38.401Z,4.58
2017-12-01T01:17:47.469Z,4.53
2017-12-01T01:18:56.270Z,4.53
2017-12-01T01:20:05.076Z,4.54
2017-12-01T01:21:13.881Z,4.54
2017-12-01T01:22:22.681Z,4.5
2017-12-01T01:23:31.750Z,4.48
2017-12-01T01:24:40.555Z,4.47
2017-12-01T01:25:49.625Z,4.42
2017-12-01T01:26:58.423Z,4.39
2017-12-01T01:28:06.959Z,4.38
2017-12-01T01:29:16.295Z,4.26
2017-12-01T01:30:25.376Z,4.33
2017-12-01T01:31:34.177Z,4.21
2017-12-01T01:32:42.977Z,4.2
2017-12-01T01:33:51.777Z,4.14
2017-12-01T01:35:00.314Z,4.24
2017-12-01T01:36:08.846Z,4.24
2017-12-01T01:37:17.647Z,4.29
2017-12-01T01:38:26.183Z,4.17
2017-12-01T01:39:34.716Z,4.2
2017-12-01T01:40:43.250Z,4.2
2017-12-01T01:41:51.784Z,4.14
2017-12-01T01:43:00.317Z,4.14
2017-12-01T01:44:09.128Z,4.1
2017-12-01T01:45:17.662Z,4.11
2017-12-01T01:46:26.461Z,3.94
2017-12-01T01:47:35.534Z,4.07
2017-12-01T01:48:44.336Z,3.93
2017-12-01T01:49:53.137Z,4.03
2017-12-01T01:51:01.671Z,4.04
2017-12-01T01:52:10.238Z,3.97
2017-12-01T01:53:19.008Z,4.03
2017-12-01T01:54:28.345Z,3.97
2017-12-01T01:55:37.154Z,3.89
2017-12-01T01:56:45.954Z,3.89
2017-12-01T01:57:55.021Z,3.86
2017-12-01T01:59:03.819Z,3.93
2017-12-01T02:00:12.357Z,3.9
2017-12-01T02:01:21.160Z,3.96
2017-12-01T02:02:29.961Z,3.96
2017-12-01T02:03:38.766Z,3.94
2017-12-01T02:04:47.297Z,3.97
2017-12-01T02:05:55.833Z,3.99
2017-12-01T02:07:04.631Z,4.02
2017-12-01T02:08:13.700Z,3.85
2017-12-01T02:09:22.500Z,3.82
2017-12-01T02:10:31.569Z,3.85
2017-12-01T02:11:40.370Z,3.89
2017-12-01T02:12:49.437Z,3.9
2017-12-01T02:13:58.508Z,3.75
2017-12-01T02:15:07.840Z,3.72
2017-12-01T02:16:16.641Z,3.75
2017-12-01T02:17:25.709Z,3.74
2017-12-01T02:18:34.511Z,3.76
2017-12-01T02:19:43.046Z,3.71
2017-12-01T02:20:52.118Z,3.78
2017-12-01T02:22:01.186Z,3.79
2017-12-01T02:23:10.258Z,3.71
2017-12-01T02:24:18.794Z,3.79
2017-12-01T02:25:27.593Z,3.67
2017-12-01T02:26:36.398Z,3.71
2017-12-01T02:27:45.527Z,3.79
2017-12-01T02:28:54.061Z,3.78
2017-12-01T02:30:02.593Z,3.92
2017-12-01T02:31:11.127Z,3.79
2017-12-01T02:32:20.481Z,3.81
2017-12-01T02:33:29.280Z,4
2017-12-01T02:34:37.816Z,3.86
2017-12-01T02:35:46.622Z,3.93
2017-12-01T02:36:55.693Z,4
2017-12-01T02:38:04.762Z,4
2017-12-01T02:39:13.565Z,3.99
2017-12-01T02:40:22.642Z,4.08
2017-12-01T02:41:31.452Z,4.08
2017-12-01T02:42:39.985Z,4.03
2017-12-01T02:43:48.524Z,4.04
2017-12-01T02:44:57.323Z,4.1
2017-12-01T02:46:05.856Z,4.07
2017-12-01T02:47:14.925Z,4.1
2017-12-01T02:48:23.462Z,4.12
2017-12-01T02:49:32.530Z,4.18
2017-12-01T02:50:41.064Z,4.17
2017-12-01T02:51:49.869Z,4.18
2017-12-01T02:52:59.473Z,4.12
2017-12-01T02:54:08.271Z,4.15
2017-12-01T02:55:17.418Z,4.15
2017-12-01T02:56:26.230Z,4.2
2017-12-01T02:57:34.757Z,4.15
2017-12-01T02:58:43.562Z,4.12
2017-12-01T02:59:52.362Z,4.15
2017-12-01T03:01:01.166Z,4.11
2017-12-01T03:02:09.967Z,4.17
2017-12-01T03:03:18.769Z,4.18
2017-12-01T03:04:27.574Z,4.14
2017-12-01T03:05:36.640Z,4.17
2017-12-01T03:06:45.441Z,4.28
2017-12-01T03:07:54.244Z,4.18
2017-12-01T03:09:02.792Z,4.2
2017-12-01T03:10:11.316Z,4.15
2017-12-01T03:11:20.388Z,4.29
2017-12-01T03:12:28.925Z,4.17
2017-12-01T03:13:37.459Z,4.15
2017-12-01T03:14:45.993Z,4.2
2017-12-01T03:15:55.063Z,4.21
2017-12-01T03:17:03.863Z,4.1
2017-12-01T03:18:12.395Z,4.17
2017-12-01T03:19:21.196Z,4.14
2017-12-01T03:20:29.999Z,4.2
2017-12-01T03:21:39.066Z,4.18
2017-12-01T03:22:47.603Z,4.17
2017-12-01T03:23:56.406Z,4.18
2017-12-01T03:25:04.942Z,4.26
2017-12-01T03:26:13.745Z,4.21
2017-12-01T03:27:22.548Z,4.28
2017-12-01T03:28:31.884Z,4.24
2017-12-01T03:29:40.415Z,4.3
2017-12-01T03:30:48.948Z,4.33
2017-12-01T03:31:57.757Z,4.26
2017-12-01T03:33:06.822Z,4.24
2017-12-01T03:34:15.624Z,4.15
2017-12-01T03:35:24.159Z,4.28
2017-12-01T03:36:35.186Z,4.26
2017-12-01T03:37:43.996Z,4.17
2017-12-01T03:38:52.794Z,4.22
2017-12-01T03:40:01.865Z,4.21
2017-12-01T03:41:10.399Z,4.18
2017-12-01T03:42:18.932Z,4.24
2017-12-01T03:43:27.735Z,4.33
2017-12-01T03:44:36.271Z,4.28
2017-12-01T03:45:45.084Z,4.3
2017-12-01T03:46:53.615Z,4.18
2017-12-01T03:48:02.154Z,4.29
2017-12-01T03:49:10.955Z,4.17
2017-12-01T03:50:19.752Z,4.29
2017-12-01T03:51:28.289Z,4.29
2017-12-01T03:52:37.089Z,4.28
2017-12-01T03:53:46.157Z,4.17
2017-12-01T03:54:54.959Z,4.3
2017-12-01T03:56:03.493Z,4.29
2017-12-01T03:57:12.292Z,4.39
2017-12-01T03:58:21.095Z,4.32
2017-12-01T03:59:29.629Z,4.3
2017-12-01T04:00:38.698Z,4.33
2017-12-01T04:01:47.232Z,4.24
2017-12-01T04:02:56.576Z,4.36
2017-12-01T04:04:05.704Z,4.35
2017-12-01T04:05:14.240Z,4.33
2017-12-01T04:06:22.776Z,4.35
2017-12-01T04:07:31.574Z,4.32
2017-12-01T04:08:40.378Z,4.24
2017-12-01T04:09:48.914Z,4.33
2017-12-01T04:10:57.451Z,4.35
2017-12-01T04:12:05.984Z,4.29
2017-12-01T04:13:14.519Z,4.39
2017-12-01T04:14:23.057Z,4.32
2017-12-01T04:15:32.127Z,4.33
2017-12-01T04:16:40.659Z,4.28
2017-12-01T04:17:49.197Z,4.22
2017-12-01T04:18:57.731Z,4.24
2017-12-01T04:20:06.534Z,4.18
2017-12-01T04:21:15.343Z,4.15
2017-12-01T04:22:23.876Z,4.17
2017-12-01T04:23:32.682Z,4.15
2017-12-01T04:24:41.211Z,4.17
2017-12-01T04:25:50.281Z,4.14
2017-12-01T04:26:59.136Z,4.18
2017-12-01T04:28:07.950Z,4.14
2017-12-01T04:29:17.017Z,4.21
2017-12-01T04:30:25.824Z,4.22
2017-12-01T04:31:34.356Z,4.2
2017-12-01T04:32:43.162Z,4.2
2017-12-01T04:33:51.963Z,4.14
2017-12-01T04:35:00.763Z,4.17
2017-12-01T04:36:09.831Z,4.18
2017-12-01T04:37:18.898Z,4.12
2017-12-01T04:38:27.696Z,4.12
2017-12-01T04:39:36.232Z,4.12
2017-12-01T04:40:45.034Z,4.17
2017-12-01T04:41:53.569Z,4.12
2017-12-01T04:43:02.692Z,4.08
2017-12-01T04:44:11.229Z,4.03
2017-12-01T04:45:20.036Z,4.14
2017-12-01T04:46:28.847Z,4.04
2017-12-01T04:47:37.639Z,4.15
2017-12-01T04:48:46.173Z,4.1
2017-12-01T04:49:54.975Z,4.1
2017-12-01T04:51:03.510Z,4.04
2017-12-01T04:52:12.879Z,4.08
2017-12-01T04:53:21.410Z,4.15
2017-12-01T04:54:29.945Z,4.07
2017-12-01T04:55:38.753Z,4.12
2017-12-01T04:56:47.554Z,4.12
2017-12-01T04:57:56.630Z,4.11
2017-12-01T04:59:05.429Z,4.15
2017-12-01T05:00:13.964Z,4.12
2017-12-01T05:01:22.773Z,4.03
2017-12-01T05:02:31.304Z,4.07
2017-12-01T05:03:39.835Z,4.12
2017-12-01T05:04:48.371Z,4.17
2017-12-01T05:05:57.173Z,4.12
2017-12-01T05:07:05.975Z,4.21
2017-12-01T05:08:14.509Z,4.17
2017-12-01T05:09:23.581Z,4.17
2017-12-01T05:10:32.649Z,4.2
2017-12-01T05:11:41.451Z,4.17
2017-12-01T05:12:50.252Z,4.2
2017-12-01T05:13:59.328Z,4.29
2017-12-01T05:15:08.150Z,4.21
2017-12-01T05:16:16.933Z,4.33
2017-12-01T05:17:25.734Z,4.36
2017-12-01T05:18:34.534Z,4.3
2017-12-01T05:19:43.531Z,4.3
2017-12-01T05:20:52.736Z,4.3
2017-12-01T05:22:01.808Z,4.26
2017-12-01T05:23:10.884Z,4.29
2017-12-01T05:24:19.416Z,4.28
2017-12-01T05:25:27.950Z,4.28
2017-12-01T05:26:36.956Z,4.26
2017-12-01T05:27:45.759Z,4.29
2017-12-01T05:28:55.110Z,4.3
2017-12-01T05:30:03.911Z,4.26
2017-12-01T05:31:12.978Z,4.21
2017-12-01T05:32:21.512Z,4.28
2017-12-01T05:33:30.593Z,4.22
2017-12-01T05:34:39.127Z,4.2
2017-12-01T05:35:48.198Z,4.15
2017-12-01T05:36:57.000Z,4.22
2017-12-01T05:38:06.077Z,4.2
2017-12-01T05:39:15.416Z,4.17
2017-12-01T05:40:24.481Z,4.24
2017-12-01T05:41:33.552Z,4.14
2017-12-01T05:42:42.370Z,4.18
2017-12-01T05:43:51.438Z,4.17
2017-12-01T05:45:01.038Z,4.15
2017-12-01T05:46:09.839Z,4.11
2017-12-01T05:47:18.643Z,4.12
2017-12-01T05:48:27.714Z,4.21
2017-12-01T05:49:36.249Z,4.17
2017-12-01T05:50:45.315Z,4.17
2017-12-01T05:51:54.650Z,4.11
2017-12-01T05:53:03.448Z,4.15
2017-12-01T05:54:12.072Z,4.11
2017-12-01T05:55:20.873Z,4.12
2017-12-01T05:56:29.731Z,4.11
2017-12-01T05:57:38.800Z,4.12
2017-12-01T05:58:47.866Z,4.04
2017-12-01T05:59:56.680Z,4.12
2017-12-01T06:01:06.028Z,4.07
2017-12-01T06:02:15.364Z,4.04
2017-12-01T06:03:23.899Z,4.08
2017-12-01T06:04:32.970Z,4
2017-12-01T06:05:41.502Z,4.12
2017-12-01T06:06:50.039Z,4.1
2017-12-01T06:07:58.569Z,4.03
2017-12-01T06:09:07.370Z,4.03
2017-12-01T06:10:16.169Z,3.99
2017-12-01T06:11:24.703Z,4.04
2017-12-01T06:12:33.503Z,4.07
2017-12-01T06:13:42.571Z,4
2017-12-01T06:14:51.375Z,4.07
2017-12-01T06:15:59.962Z,4.15
2017-12-01T06:17:08.504Z,3.97
2017-12-01T06:18:17.039Z,4.08
2017-12-01T06:19:25.845Z,4.02
2017-12-01T06:20:34.374Z,4.1
2017-12-01T06:21:43.447Z,4.14
2017-12-01T06:22:52.513Z,4.14
2017-12-01T06:24:01.050Z,4.17
2017-12-01T06:25:09.585Z,4.04
2017-12-01T06:26:18.120Z,4.15
2017-12-01T06:27:26.651Z,4.14
2017-12-01T06:28:35.456Z,4.08
2017-12-01T06:29:44.257Z,4.12
2017-12-01T06:30:53.334Z,4.04
2017-12-01T06:32:02.404Z,4.1
2017-12-01T06:33:11.203Z,4.18
2017-12-01T06:34:19.739Z,4.02
2017-12-01T06:35:28.272Z,4.11
2017-12-01T06:36:36.808Z,4.07
2017-12-01T06:37:45.610Z,4.11
2017-12-01T06:38:54.413Z,3.94
2017-12-01T06:40:03.211Z,4.07
2017-12-01T06:41:11.744Z,4.11
2017-12-01T06:42:20.275Z,4.07
2017-12-01T06:43:29.085Z,4.03
2017-12-01T06:44:37.893Z,4.04
2017-12-01T06:45:46.427Z,3.99
2017-12-01T06:46:55.500Z,3.94
2017-12-01T06:48:04.565Z,4
2017-12-01T06:49:13.639Z,3.93
2017-12-01T06:50:22.444Z,4.02
2017-12-01T06:51:30.978Z,4.03
2017-12-01T06:52:39.778Z,4.04
2017-12-01T06:53:48.313Z,4.03
2017-12-01T06:54:56.847Z,4.08
2017-12-01T06:56:05.384Z,4.04
2017-12-01T06:57:13.919Z,4.04
2017-12-01T06:58:22.525Z,3.99
2017-12-01T06:59:32.181Z,3.99
2017-12-01T07:00:40.983Z,4.07
2017-12-01T07:01:49.516Z,4.02
2017-12-01T07:02:58.314Z,4.04
2017-12-01T07:04:07.118Z,4
2017-12-01T07:05:15.653Z,4
2017-12-01T07:06:24.451Z,4
2017-12-01T07:07:33.255Z,4.03
2017-12-01T07:08:41.797Z,4
2017-12-01T07:09:50.591Z,4
2017-12-01T07:10:59.125Z,4.03
2017-12-01T07:12:07.928Z,4.07
2017-12-01T07:13:17.004Z,4.08
2017-12-01T07:14:25.810Z,4.11
2017-12-01T07:15:34.346Z,4.1
2017-12-01T07:16:43.154Z,4.14
2017-12-01T07:17:51.955Z,4.2
2017-12-01T07:19:00.754Z,4.22
2017-12-01T07:20:09.822Z,4.2
2017-12-01T07:21:18.624Z,4.18
2017-12-01T07:22:27.157Z,4.2
2017-12-01T07:23:35.959Z,4.18
2017-12-01T07:24:44.499Z,4.26
2017-12-01T07:25:53.563Z,4.32
2017-12-01T07:27:02.099Z,4.33
2017-12-01T07:28:10.633Z,4.32
2017-12-01T07:29:19.165Z,4.36
2017-12-01T07:30:27.698Z,4.36
2017-12-01T07:31:36.780Z,4.33
2017-12-01T07:32:45.309Z,4.33
2017-12-01T07:33:53.845Z,4.3
2017-12-01T07:35:02.378Z,4.32
2017-12-01T07:36:11.458Z,4.36
2017-12-01T07:37:20.261Z,4.33
2017-12-01T07:38:28.791Z,4.35
2017-12-01T07:39:37.856Z,4.32
2017-12-01T07:40:46.659Z,4.33
2017-12-01T07:41:55.195Z,4.33
2017-12-01T07:43:03.730Z,4.33
2017-12-01T07:44:12.266Z,4.44
2017-12-01T07:45:20.801Z,4.42
2017-12-01T07:46:29.605Z,4.44
2017-12-01T07:47:38.408Z,4.36
2017-12-01T07:48:47.481Z,4.4
2017-12-01T07:49:56.289Z,4.39
2017-12-01T07:51:05.361Z,4.39
2017-12-01T07:52:14.160Z,4.47
2017-12-01T07:53:22.961Z,4.48
2017-12-01T07:54:31.762Z,4.44
2017-12-01T07:55:40.570Z,4.48
2017-12-01T07:56:49.367Z,4.47
2017-12-01T07:57:58.168Z,4.5
2017-12-01T07:59:07.515Z,4.48
2017-12-01T08:00:16.332Z,4.51
2017-12-01T08:01:25.401Z,4.44
2017-12-01T08:02:34.205Z,4.48
2017-12-01T08:03:43.007Z,4.5
2017-12-01T08:04:52.344Z,4.6
2017-12-01T08:06:01.150Z,4.66
2017-12-01T08:07:09.683Z,4.61
2017-12-01T08:08:18.219Z,4.74
2017-12-01T08:09:27.289Z,4.66
2017-12-01T08:10:36.626Z,4.66
2017-12-01T08:11:45.429Z,4.71
2017-12-01T08:12:54.239Z,4.79
2017-12-01T08:14:02.769Z,4.74
2017-12-01T08:15:11.848Z,4.74
2017-12-01T08:16:20.388Z,4.76
2017-12-01T08:17:28.922Z,4.78
2017-12-01T08:18:37.996Z,4.88
2017-12-01T08:19:46.807Z,4.87
2017-12-01T08:20:55.607Z,4.83
2017-12-01T08:22:04.676Z,4.91
2017-12-01T08:23:13.209Z,4.91
2017-12-01T08:24:21.745Z,4.87
2017-12-01T08:25:30.591Z,4.79
2017-12-01T08:26:39.391Z,4.78
2017-12-01T08:27:48.193Z,4.85
2017-12-01T08:28:56.727Z,4.85
2017-12-01T08:30:05.547Z,4.84
2017-12-01T08:31:14.347Z,4.85
2017-12-01T08:32:23.149Z,4.76
2017-12-01T08:33:31.957Z,4.84
2017-12-01T08:34:40.759Z,4.74
2017-12-01T08:35:49.568Z,4.76
2017-12-01T08:36:58.103Z,4.79
2017-12-01T08:38:06.904Z,4.76
2017-12-01T08:39:15.712Z,4.88
2017-12-01T08:40:24.511Z,4.79
2017-12-01T08:41:33.316Z,4.83
2017-12-01T08:42:41.853Z,4.94
2017-12-01T08:43:50.656Z,4.78
2017-12-01T08:44:59.727Z,4.91
2017-12-01T08:46:08.796Z,4.94
2017-12-01T08:47:17.970Z,4.94
2017-12-01T08:48:26.506Z,4.94
2017-12-01T08:49:35.578Z,4.97
2017-12-01T08:50:44.383Z,4.98
2017-12-01T08:51:52.918Z,4.97
2017-12-01T08:53:01.719Z,4.97
2017-12-01T08:54:10.786Z,5.03
2017-12-01T08:55:19.319Z,4.97
2017-12-01T08:56:27.855Z,5.08
2017-12-01T08:57:36.929Z,4.98
2017-12-01T08:58:45.734Z,5.1
2017-12-01T08:59:54.540Z,5.06
2017-12-01T09:01:03.077Z,5.08
2017-12-01T09:02:11.612Z,5.1
2017-12-01T09:03:20.148Z,5.09
2017-12-01T09:04:28.954Z,5.08
2017-12-01T09:05:37.750Z,5.09
2017-12-01T09:06:46.570Z,5
2017-12-01T09:07:55.373Z,5.03
2017-12-01T09:09:04.439Z,5
2017-12-01T09:10:13.243Z,5.06
2017-12-01T09:11:22.050Z,5.05
2017-12-01T09:12:30.852Z,5.05
2017-12-01T09:13:39.652Z,4.98
2017-12-01T09:14:48.460Z,5.1
2017-12-01T09:15:56.997Z,5.03
2017-12-01T09:17:05.799Z,5.12
2017-12-01T09:18:14.346Z,5.08
2017-12-01T09:19:23.152Z,5.12
2017-12-01T09:20:31.682Z,5.18
2017-12-01T09:21:40.216Z,5.16
2017-12-01T09:22:48.749Z,5.1
2017-12-01T09:23:57.553Z,5.2
2017-12-01T09:25:06.896Z,5.13
2017-12-01T09:26:16.024Z,5.21
2017-12-01T09:27:24.512Z,5.21
2017-12-01T09:28:33.348Z,5.24
2017-12-01T09:29:41.974Z,5.23
2017-12-01T09:30:50.577Z,5.24
2017-12-01T09:31:59.773Z,5.28
2017-12-01T09:33:09.139Z,5.39
2017-12-01T09:34:17.678Z,5.34
2017-12-01T09:35:26.224Z,5.37
2017-12-01T09:36:35.302Z,5.36
2017-12-01T09:37:43.839Z,5.41
2017-12-01T09:38:52.917Z,5.31
2017-12-01T09:40:01.451Z,5.31
2017-12-01T09:41:09.986Z,5.31
2017-12-01T09:42:19.063Z,5.36
2017-12-01T09:43:28.131Z,5.34
2017-12-01T09:44:36.684Z,5.37
2017-12-01T09:45:45.223Z,5.34
2017-12-01T09:46:53.924Z,5.31
2017-12-01T09:48:02.732Z,5.42
2017-12-01T09:49:11.594Z,5.33
2017-12-01T09:50:20.706Z,5.26
2017-12-01T09:51:29.466Z,5.27
2017-12-01T09:52:38.273Z,5.27
2017-12-01T09:53:47.077Z,5.36
2017-12-01T09:54:56.158Z,5.33
2017-12-01T09:56:05.238Z,5.31
2017-12-01T09:57:14.308Z,5.36
2017-12-01T09:58:23.110Z,5.28
2017-12-01T09:59:31.921Z,5.37
2017-12-01T10:00:40.721Z,5.36
2017-12-01T10:01:49.556Z,5.41
2017-12-01T10:02:58.069Z,5.49
2017-12-01T10:04:06.882Z,5.48
2017-12-01T10:05:15.424Z,5.64
2017-12-01T10:06:24.763Z,5.69
2017-12-01T10:07:33.562Z,5.72
2017-12-01T10:08:42.366Z,5.7
2017-12-01T10:09:51.172Z,5.67
2017-12-01T10:10:59.976Z,5.67
2017-12-01T10:12:08.872Z,5.69
2017-12-01T10:13:17.903Z,5.67
2017-12-01T10:14:26.442Z,5.67
2017-12-01T10:15:35.249Z,5.67
2017-12-01T10:16:44.055Z,5.7
2017-12-01T10:17:52.642Z,5.75
2017-12-01T10:19:01.445Z,5.72
2017-12-01T10:20:10.253Z,5.8
2017-12-01T10:21:19.322Z,5.73
2017-12-01T10:22:28.130Z,5.67
2017-12-01T10:23:36.671Z,5.67
2017-12-01T10:24:45.536Z,5.69
2017-12-01T10:25:54.073Z,5.64
2017-12-01T10:27:02.612Z,5.59
2017-12-01T10:28:11.692Z,5.62
2017-12-01T10:29:20.497Z,5.66
2017-12-01T10:30:29.032Z,5.7
2017-12-01T10:31:38.099Z,5.67
2017-12-01T10:32:46.637Z,5.7
2017-12-01T10:33:55.441Z,5.69
2017-12-01T10:35:04.249Z,5.75
2017-12-01T10:36:12.784Z,5.77
2017-12-01T10:37:21.328Z,5.8
2017-12-01T10:38:30.130Z,5.7
2017-12-01T10:39:38.669Z,5.77
2017-12-01T10:40:47.207Z,5.85
2017-12-01T10:41:56.286Z,5.84
2017-12-01T10:43:05.088Z,5.85
2017-12-01T10:44:13.619Z,5.88
2017-12-01T10:45:22.158Z,5.84
2017-12-01T10:46:30.697Z,5.91
2017-12-01T10:47:40.039Z,5.92
2017-12-01T10:48:48.575Z,5.96
2017-12-01T10:49:57.119Z,5.92
2017-12-01T10:51:05.660Z,6.02
2017-12-01T10:52:14.468Z,5.96
2017-12-01T10:53:23.570Z,6
2017-12-01T10:54:32.125Z,5.88
2017-12-01T10:55:40.948Z,6.02
2017-12-01T10:56:49.490Z,6.07
2017-12-01T10:57:58.027Z,5.99
2017-12-01T10:59:06.564Z,6.07
2017-12-01T11:00:15.103Z,6.07
2017-12-01T11:01:23.907Z,6.14
2017-12-01T11:02:32.446Z,6.18
2017-12-01T11:03:41.250Z,6.21
2017-12-01T11:04:50.320Z,6.09
2017-12-01T11:05:59.125Z,6.21
2017-12-01T11:07:07.935Z,6.24
2017-12-01T11:08:16.742Z,6.28
2017-12-01T11:09:25.289Z,6.37
2017-12-01T11:10:34.094Z,6.46
2017-12-01T11:11:43.436Z,6.39
2017-12-01T11:12:51.973Z,6.55
2017-12-01T11:14:00.509Z,6.52
2017-12-01T11:15:09.865Z,6.49
2017-12-01T11:16:18.422Z,6.55
2017-12-01T11:17:27.234Z,6.51
2017-12-01T11:18:36.035Z,6.64
2017-12-01T11:19:44.839Z,6.62
2017-12-01T11:20:53.640Z,6.61
2017-12-01T11:22:02.178Z,6.57
2017-12-01T11:23:11.384Z,6.57
2017-12-01T11:24:20.215Z,6.57
2017-12-01T11:25:29.028Z,6.55
2017-12-01T11:26:38.096Z,6.58
2017-12-01T11:27:47.171Z,6.58
2017-12-01T11:28:55.978Z,6.6
2017-12-01T11:30:04.785Z,6.61
2017-12-01T11:31:13.594Z,6.61
2017-12-01T11:32:22.688Z,6.6
2017-12-01T11:33:31.561Z,6.55
2017-12-01T11:34:40.412Z,6.57
2017-12-01T11:35:48.949Z,6.57
2017-12-01T11:36:58.025Z,6.61
2017-12-01T11:38:06.674Z,6.57
2017-12-01T11:39:15.244Z,6.58
2017-12-01T11:40:23.789Z,6.61
2017-12-01T11:41:32.867Z,6.57
2017-12-01T11:42:41.671Z,6.6
2017-12-01T11:43:50.482Z,6.54
2017-12-01T11:44:59.018Z,6.65
2017-12-01T11:46:08.092Z,6.57
2017-12-01T11:47:16.904Z,6.51
2017-12-01T11:48:25.800Z,6.52
2017-12-01T11:49:34.601Z,6.43
2017-12-01T11:50:43.318Z,6.39
2017-12-01T11:51:52.124Z,6.33
2017-12-01T11:53:01.194Z,6.31
2017-12-01T11:54:09.785Z,6.28
2017-12-01T11:55:18.339Z,6.39
2017-12-01T11:56:26.877Z,6.25
2017-12-01T11:57:35.415Z,6.39
2017-12-01T11:58:43.956Z,6.29
2017-12-01T11:59:52.761Z,6.31
2017-12-01T12:01:01.565Z,6.34
2017-12-01T12:02:10.104Z,6.34
2017-12-01T12:03:18.648Z,6.33
2017-12-01T12:04:27.452Z,6.34
2017-12-01T12:05:35.993Z,6.39
2017-12-01T12:06:44.844Z,6.39
2017-12-01T12:07:53.387Z,6.44
2017-12-01T12:09:01.924Z,6.46
2017-12-01T12:10:10.743Z,6.43
2017-12-01T12:11:19.279Z,6.37
2017-12-01T12:12:28.356Z,6.37
2017-12-01T12:13:36.897Z,6.39
2017-12-01T12:14:45.430Z,6.43
2017-12-01T12:15:54.233Z,6.52
2017-12-01T12:17:02.778Z,6.52
2017-12-01T12:18:11.315Z,6.64
2017-12-01T12:19:19.851Z,6.52
2017-12-01T12:20:28.655Z,6.64
2017-12-01T12:21:37.725Z,6.64
2017-12-01T12:22:46.259Z,6.6
2017-12-01T12:23:54.811Z,6.6
2017-12-01T12:25:03.349Z,6.58
2017-12-01T12:26:11.889Z,6.6
2017-12-01T12:27:21.164Z,6.54
2017-12-01T12:28:29.980Z,6.55
2017-12-01T12:29:39.062Z,6.6
2017-12-01T12:30:48.541Z,6.62
2017-12-01T12:31:57.343Z,6.52
2017-12-01T12:33:05.882Z,6.6
2017-12-01T12:34:14.952Z,6.62
2017-12-01T12:35:24.385Z,6.49
2017-12-01T12:36:33.200Z,6.57
2017-12-01T12:37:42.279Z,6.58
2017-12-01T12:38:50.827Z,6.68
2017-12-01T12:39:59.371Z,6.6
2017-12-01T12:41:07.914Z,6.6
2017-12-01T12:42:17.001Z,6.65
2017-12-01T12:43:25.813Z,6.65
2017-12-01T12:44:34.360Z,6.67
2017-12-01T12:45:42.908Z,6.7
2017-12-01T12:46:51.983Z,6.7
2017-12-01T12:48:00.806Z,6.61
2017-12-01T12:49:09.358Z,6.65
2017-12-01T12:50:18.175Z,6.7
2017-12-01T12:51:27.138Z,6.62
2017-12-01T12:52:35.687Z,6.62
2017-12-01T12:53:44.497Z,6.61
2017-12-01T12:54:53.575Z,6.61
2017-12-01T12:56:02.164Z,6.61
2017-12-01T12:57:10.999Z,6.67
2017-12-01T12:58:19.551Z,6.68
2017-12-01T12:59:28.355Z,6.61
2017-12-01T13:00:37.167Z,6.6
2017-12-01T13:01:46.242Z,6.57
2017-12-01T13:02:55.044Z,6.57
2017-12-01T13:04:04.117Z,6.52
2017-12-01T13:05:12.965Z,6.37
2017-12-01T13:06:21.502Z,6.37
2017-12-01T13:07:30.580Z,6.39
2017-12-01T13:08:39.385Z,6.33
2017-12-01T13:09:48.458Z,6.39
2017-12-01T13:10:57.528Z,6.28
2017-12-01T13:12:06.068Z,6.25
2017-12-01T13:13:14.604Z,6.29
2017-12-01T13:14:23.418Z,6.25
2017-12-01T13:15:32.489Z,6.21
2017-12-01T13:16:41.026Z,6.14
2017-12-01T13:17:49.562Z,6.15
2017-12-01T13:18:58.424Z,6.25
2017-12-01T13:20:06.986Z,6.25
2017-12-01T13:21:16.327Z,6.29
2017-12-01T13:22:24.870Z,6.28
2017-12-01T13:23:33.409Z,6.36
2017-12-01T13:24:41.945Z,6.39
2017-12-01T13:25:50.482Z,6.4
2017-12-01T13:26:59.560Z,6.55
2017-12-01T13:28:08.364Z,6.54
2017-12-01T13:29:17.168Z,6.54
2017-12-01T13:30:25.993Z,6.6
2017-12-01T13:31:34.852Z,6.62
2017-12-01T13:32:43.415Z,6.64
2017-12-01T13:33:52.228Z,6.68
2017-12-01T13:35:01.302Z,6.65
2017-12-01T13:36:10.386Z,6.78
2017-12-01T13:37:19.791Z,6.78
2017-12-01T13:38:28.600Z,6.75
2017-12-01T13:39:37.678Z,6.76
2017-12-01T13:40:46.750Z,6.76
2017-12-01T13:41:55.825Z,6.65
2017-12-01T13:43:04.367Z,6.72
2017-12-01T13:44:13.175Z,6.79
2017-12-01T13:45:21.983Z,6.8
2017-12-01T13:46:30.792Z,6.78
2017-12-01T13:47:39.864Z,6.68
2017-12-01T13:48:48.930Z,6.64
2017-12-01T13:49:57.749Z,6.73
2017-12-01T13:51:06.289Z,6.76
2017-12-01T13:52:15.093Z,6.76
2017-12-01T13:53:23.899Z,6.75
2017-12-01T13:54:32.437Z,6.73
2017-12-01T13:55:40.978Z,6.72
2017-12-01T13:56:50.060Z,6.67
2017-12-01T13:57:58.596Z,6.78
2017-12-01T13:59:07.395Z,6.72
2017-12-01T14:00:16.199Z,6.73
2017-12-01T14:01:25.271Z,6.82
2017-12-01T14:02:34.080Z,6.8
2017-12-01T14:03:42.617Z,6.73
2017-12-01T14:04:51.692Z,6.67
2017-12-01T14:06:00.502Z,6.73
2017-12-01T14:07:09.307Z,6.76
2017-12-01T14:08:18.111Z,6.75
2017-12-01T14:09:27.184Z,6.68
2017-12-01T14:10:35.991Z,6.65
2017-12-01T14:11:44.526Z,6.67
2017-12-01T14:12:53.608Z,6.73
2017-12-01T14:14:02.615Z,6.61
2017-12-01T14:15:11.423Z,6.61
2017-12-01T14:16:20.840Z,6.6
2017-12-01T14:17:30.515Z,6.62
2017-12-01T14:18:39.318Z,6.65
2017-12-01T14:19:47.894Z,6.58
2017-12-01T14:20:56.435Z,6.61
2017-12-01T14:22:05.505Z,6.58
2017-12-01T14:23:14.307Z,6.52
2017-12-01T14:24:22.847Z,6.54
2017-12-01T14:25:31.398Z,6.54
2017-12-01T14:26:40.217Z,6.55
2017-12-01T14:27:48.763Z,6.54
2017-12-01T14:28:57.608Z,6.44
2017-12-01T14:30:06.675Z,6.44
2017-12-01T14:31:15.747Z,6.42
2017-12-01T14:32:24.819Z,6.39
2017-12-01T14:33:33.356Z,6.42
2017-12-01T14:34:41.915Z,6.39
2017-12-01T14:35:50.539Z,6.4
2017-12-01T14:36:59.099Z,6.42
2017-12-01T14:38:07.904Z,6.31
2017-12-01T14:39:16.711Z,6.33
2017-12-01T14:40:25.512Z,6.25
2017-12-01T14:41:34.322Z,6.29
2017-12-01T14:42:43.393Z,6.29
2017-12-01T14:43:51.928Z,6.26
2017-12-01T14:45:01.007Z,6.24
2017-12-01T14:46:10.800Z,6.26
2017-12-01T14:47:19.340Z,6.14
2017-12-01T14:48:27.873Z,6.14
2017-12-01T14:49:36.777Z,6.1
2017-12-01T14:50:45.578Z,6.2
2017-12-01T14:51:54.389Z,6.21
2017-12-01T14:53:03.197Z,6.1
2017-12-01T14:54:12.275Z,6.06
2017-12-01T14:55:21.351Z,6.07
2017-12-01T14:56:30.748Z,6.09
2017-12-01T14:57:40.094Z,6.13
2017-12-01T14:58:49.168Z,6.13
2017-12-01T14:59:57.701Z,6.06
2017-12-01T15:01:06.235Z,6.05
2017-12-01T15:02:15.036Z,6.05
2017-12-01T15:03:23.576Z,6.03
2017-12-01T15:04:32.384Z,5.92
2017-12-01T15:05:41.189Z,5.95
2017-12-01T15:06:49.729Z,5.98
2017-12-01T15:07:58.528Z,5.84
2017-12-01T15:09:07.067Z,5.89
2017-12-01T15:10:15.603Z,5.87
2017-12-01T15:11:24.679Z,5.85
2017-12-01T15:12:33.485Z,5.88
2017-12-01T15:13:42.386Z,5.85
2017-12-01T15:14:50.927Z,5.8
2017-12-01T15:15:59.745Z,5.77
2017-12-01T15:17:09.151Z,5.67
2017-12-01T15:18:17.646Z,5.64
2017-12-01T15:19:26.185Z,5.66
2017-12-01T15:20:34.723Z,5.64